Time;durP1;ratioP1;P1;durP2;ratioP2;P2;SDS_P1;SDS_P2;PMS_P1;PMS_P2;Temp;Humidity;BMP_temperature;BMP_pressure;BME280_temperature;BME280_humidity;BME280_pressure;Samples;Min_cycle;Max_cycle;Signal;HPM_P1;HPM_P2
2021/11/23 00:00:31;;;;;;;30.73;9.10;;;;;;;;;;4361955;32;20346;-72
2021/11/23 00:02:56;;;;;;;;;;;;;;;;;;4373280;32;20069;-72
2021/11/23 00:05:21;;;;;;;16.98;7.68;;;;;;;;;;4362797;32;19965;-72
2021/11/23 00:07:47;;;;;;;;;;;;;;;;;;4362319;32;20055;-72
2021/11/23 00:10:12;;;;;;;16.98;8.27;;;;;;;;;;4373159;32;19954;-72
2021/11/23 00:12:37;;;;;;;;;;;;;;;;;;4361888;32;20468;-72
2021/11/23 00:15:03;;;;;;;18.62;7.70;;;;;;;;;;4361730;32;19985;-71
2021/11/23 00:17:28;;;;;;;;;;;;;;;;;;4362687;32;20065;-72
2021/11/23 00:19:53;;;;;;;15.73;7.32;;;;;;;;;;4372999;32;19972;-72
2021/11/23 00:22:18;;;;;;;;;;;;;;;;;;4361599;32;20162;-72
2021/11/23 00:24:44;;;;;;;14.45;7.60;;;;;;;;;;4361998;32;19957;-72
2021/11/23 00:27:09;;;;;;;;;;;;;;;;;;4361444;32;20039;-72
2021/11/23 00:29:34;;;;;;;20.37;8.63;;;;;;;;;;4347790;33;19938;-72
2021/11/23 00:32:00;;;;;;;;;;;;;;;;;;4361930;32;20020;-72
2021/11/23 00:34:26;;;;;;;16.75;8.50;;;;;;;;;;4361063;32;19942;-72
2021/11/23 00:36:51;;;;;;;;;;;;;;;;;;4348710;33;20069;-72
2021/11/23 00:39:17;;;;;;;18.50;7.47;;;;;;;;;;4361307;33;19982;-73
2021/11/23 00:41:47;;;;;;;;;;;;;;;;;;4361179;32;20045;-72
2021/11/23 00:44:16;;;;;;;18.58;7.80;;;;;;;;;;4362535;32;20314;-72
2021/11/23 00:46:42;;;;;;;14.20;6.95;;;;;;;;;;4361304;33;20050;-72
2021/11/23 00:49:07;;;;;;;;;;;;;;;;;;4361421;32;20059;-72
2021/11/23 00:51:32;;;;;;;18.98;7.72;;;;;;;;;;4360112;32;19938;-72
2021/11/23 00:53:58;;;;;;;;;;;;;;;;;;4361499;32;20073;-72
2021/11/23 00:56:23;;;;;;;15.98;7.00;;;;;;;;;;4360980;32;19992;-72
2021/11/23 00:58:48;;;;;;;;;;;;;;;;;;4361956;32;20086;-73
2021/11/23 01:01:13;;;;;;;16.10;7.00;;;;;;;;;;4361603;32;19968;-72
2021/11/23 01:03:39;;;;;;;;;;;;;;;;;;4360443;32;20020;-72
2021/11/23 01:06:04;;;;;;;15.82;6.96;;;;;;;;;;4361096;32;19947;-72
2021/11/23 01:08:29;;;;;;;;;;;;;;;;;;4361583;32;20027;-72
2021/11/23 01:10:55;;;;;;;15.10;7.18;;;;;;;;;;4360236;32;19942;-72
2021/11/23 01:13:20;;;;;;;;;;;;;;;;;;4360920;33;20080;-72
2021/11/23 01:15:45;;;;;;;19.67;6.70;;;;;;;;;;4361092;32;19968;-72
2021/11/23 01:18:11;;;;;;;;;;;;;;;;;;4362681;32;20181;-72
2021/11/23 01:20:36;;;;;;;14.96;6.98;;;;;;;;;;4360595;32;19981;-72
2021/11/23 01:23:01;;;;;;;;;;;;;;;;;;4360932;33;20093;-72
2021/11/23 01:25:26;;;;;;;16.12;6.55;;;;;;;;;;4371409;32;19970;-72
2021/11/23 01:27:52;;;;;;;;;;;;;;;;;;4372445;32;20222;-72
2021/11/23 01:30:18;;;;;;;16.34;5.70;;;;;;;;;;4360606;32;19949;-72
2021/11/23 01:32:43;;;;;;;;;;;;;;;;;;4361193;32;20054;-72
2021/11/23 01:35:09;;;;;;;18.35;6.60;;;;;;;;;;4361483;32;19935;-73
2021/11/23 01:37:35;;;;;;;16.08;5.10;;;;;;;;;;4360920;32;20132;-72
2021/11/23 01:40:00;;;;;;;;;;;;;;;;;;4360954;32;20023;-72
2021/11/23 01:42:25;;;;;;;14.00;5.53;;;;;;;;;;4360324;32;19976;-72
2021/11/23 01:44:51;;;;;;;;;;;;;;;;;;4360474;33;20016;-72
2021/11/23 01:47:16;;;;;;;13.43;5.25;;;;;;;;;;4360812;32;19938;-72
2021/11/23 01:49:41;;;;;;;;;;;;;;;;;;4347355;33;20012;-72
2021/11/23 01:52:07;;;;;;;11.45;5.00;;;;;;;;;;4360205;33;19970;-72
2021/11/23 01:54:32;;;;;;;;;;;;;;;;;;4360590;32;20120;-72
2021/11/23 01:56:58;;;;;;;13.55;5.12;;;;;;;;;;4358929;33;19968;-72
2021/11/23 01:59:23;;;;;;;;;;;;;;;;;;4347122;33;20079;-72
2021/11/23 02:01:48;;;;;;;10.50;4.97;;;;;;;;;;4360889;32;19935;-72
2021/11/23 02:04:13;;;;;;;;;;;;;;;;;;4360657;33;20155;-72
2021/11/23 02:06:39;;;;;;;10.32;4.18;;;;;;;;;;4360160;33;19951;-72
2021/11/23 02:09:04;;;;;;;;;;;;;;;;;;4359683;33;20122;-72
2021/11/23 02:11:29;;;;;;;15.20;4.90;;;;;;;;;;4359897;33;19943;-72
2021/11/23 02:13:54;;;;;;;;;;;;;;;;;;4359926;33;20024;-72
2021/11/23 02:16:20;;;;;;;16.05;4.97;;;;;;;;;;4359660;33;20323;-72
2021/11/23 02:18:45;;;;;;;;;;;;;;;;;;4360351;33;20519;-72
2021/11/23 02:21:10;;;;;;;12.30;4.95;;;;;;;;;;4365152;32;19942;-72
2021/11/23 02:23:45;;;;;;;;;;;;;;;;;;4369695;32;20217;-72
2021/11/23 02:26:10;;;;;;;9.63;4.87;;;;;;;;;;4349842;33;20325;-72
2021/11/23 02:28:35;;;;;;;;;;;;;;;;;;4349949;33;20042;-72
2021/11/23 02:31:01;;;;;;;10.10;4.50;;;;;;;;;;4363060;32;19953;-72
2021/11/23 02:33:26;;;;;;;;;;;;;;;;;;4363452;32;20066;-72
2021/11/23 02:35:53;;;;;;;17.45;5.60;;;;;;;;;;4363782;32;19938;-72
2021/11/23 02:38:19;;;;;;;10.77;4.65;;;;;;;;;;4362884;32;20054;-72
2021/11/23 02:40:45;;;;;;;15.10;6.57;;;;;;;;;;4361602;32;20421;-73
2021/11/23 02:43:10;;;;;;;;;;;;;;;;;;4362760;33;20024;-73
2021/11/23 02:45:35;;;;;;;9.20;4.62;;;;;;;;;;4362766;32;19942;-72
2021/11/23 02:48:00;;;;;;;;;;;;;;;;;;4362081;33;20194;-72
2021/11/23 02:50:26;;;;;;;13.05;5.75;;;;;;;;;;4362986;33;20261;-72
2021/11/23 02:52:52;;;;;;;17.08;5.32;;;;;;;;;;4362613;32;20045;-72
2021/11/23 02:55:17;;;;;;;;;;;;;;;;;;4362995;32;20023;-72
2021/11/23 02:57:43;;;;;;;15.32;5.65;;;;;;;;;;4363264;32;19934;-72
2021/11/23 03:00:09;;;;;;;;;;;;;;;;;;4362945;32;20085;-72
2021/11/23 03:02:34;;;;;;;13.05;4.78;;;;;;;;;;4363319;32;19934;-72
2021/11/23 03:05:00;;;;;;;;;;;;;;;;;;4348923;33;20073;-71
2021/11/23 03:07:29;;;;;;;10.30;4.40;;;;;;;;;;4362676;32;19946;-73
2021/11/23 03:09:55;;;;;;;10.55;3.72;;;;;;;;;;4362309;32;20435;-72
2021/11/23 03:12:22;;;;;;;8.82;3.60;;;;;;;;;;4362774;32;20469;-71
2021/11/23 03:14:47;;;;;;;11.75;4.28;;;;;;;;;;4362347;32;20444;-72
2021/11/23 03:17:13;;;;;;;;;;;;;;;;;;4362780;32;20042;-72
2021/11/23 03:19:38;;;;;;;10.88;5.68;;;;;;;;;;4363048;32;20302;-72
2021/11/23 03:22:03;;;;;;;;;;;;;;;;;;4363328;32;20084;-72
2021/11/23 03:24:29;;;;;;;8.88;4.18;;;;;;;;;;4373555;32;20005;-72
2021/11/23 03:26:54;;;;;;;;;;;;;;;;;;4371112;32;20093;-72
2021/11/23 03:29:20;;;;;;;15.93;3.50;;;;;;;;;;4377580;32;19938;-72
2021/11/23 03:31:45;;;;;;;;;;;;;;;;;;4377343;32;20065;-72
2021/11/23 03:34:10;;;;;;;12.25;3.67;;;;;;;;;;4375407;32;19930;-72
2021/11/23 03:36:39;;;;;;;;;;;;;;;;;;4377331;32;20054;-73
2021/11/23 03:39:05;;;;;;;11.10;3.78;;;;;;;;;;4377666;32;20339;-72
2021/11/23 03:41:30;;;;;;;;;;;;;;;;;;4367601;32;20098;-72
2021/11/23 03:43:56;;;;;;;14.57;6.18;;;;;;;;;;4362781;32;19946;-72
2021/11/23 03:46:21;;;;;;;;;;;;;;;;;;4362303;32;20023;-72
2021/11/23 03:48:46;;;;;;;17.45;5.25;;;;;;;;;;4362217;32;19969;-73
2021/11/23 03:51:11;;;;;;;;;;;;;;;;;;4361087;32;20345;-73
2021/11/23 03:53:36;;;;;;;8.55;3.80;;;;;;;;;;4361537;32;19986;-73
2021/11/23 03:56:01;;;;;;;;;;;;;;;;;;4351848;32;20031;-72
2021/11/23 03:58:27;;;;;;;9.68;3.34;;;;;;;;;;4376826;32;19948;-72
2021/11/23 04:00:52;;;;;;;;;;;;;;;;;;4364374;32;20015;-72
2021/11/23 04:03:17;;;;;;;11.20;3.67;;;;;;;;;;4348447;33;19969;-73
2021/11/23 04:05:42;;;;;;;;;;;;;;;;;;4364874;32;20157;-73
2021/11/23 04:08:08;;;;;;;10.13;3.28;;;;;;;;;;4346802;33;20299;-73
2021/11/23 04:10:33;;;;;;;;;;;;;;;;;;4346907;33;20131;-72
2021/11/23 04:12:58;;;;;;;8.52;3.58;;;;;;;;;;4333166;33;19970;-72
2021/11/23 04:15:23;;;;;;;;;;;;;;;;;;4333592;33;20020;-73
2021/11/23 04:17:50;;;;;;;10.15;3.40;;;;;;;;;;4342179;32;19938;-73
2021/11/23 04:20:16;;;;;;;12.52;3.55;;;;;;;;;;4376638;32;20023;-72
2021/11/23 04:22:41;;;;;;;;;;;;;;;;;;4351817;32;20046;-73
2021/11/23 04:25:08;;;;;;;8.38;3.42;;;;;;;;;;4375605;32;20280;-73
2021/11/23 04:27:33;;;;;;;8.98;3.50;;;;;;;;;;4371473;32;20421;-72
2021/11/23 04:29:58;;;;;;;;;;;;;;;;;;4362316;32;20050;-72
2021/11/23 04:32:23;;;;;;;7.75;3.08;;;;;;;;;;4361740;32;19978;-72
2021/11/23 04:34:48;;;;;;;;;;;;;;;;;;4361359;32;20119;-72
2021/11/23 04:37:15;;;;;;;10.85;3.67;;;;;;;;;;4361464;32;19947;-72
2021/11/23 04:39:41;;;;;;;9.35;3.17;;;;;;;;;;4361824;32;20149;-72
2021/11/23 04:42:06;;;;;;;;;;;;;;;;;;4361470;32;20410;-73
2021/11/23 04:44:31;;;;;;;8.82;3.78;;;;;;;;;;4360976;32;19949;-72
2021/11/23 04:46:57;;;;;;;;;;;;;;;;;;4361789;32;20358;-73
2021/11/23 04:49:22;;;;;;;11.77;4.20;;;;;;;;;;4361262;33;19953;-73
2021/11/23 04:51:48;;;;;;;;;;;;;;;;;;4348233;32;20124;-72
2021/11/23 04:54:13;;;;;;;12.50;5.12;;;;;;;;;;4361286;32;19981;-72
2021/11/23 04:56:38;;;;;;;;;;;;;;;;;;4361418;33;20019;-72
2021/11/23 04:59:03;;;;;;;11.32;3.95;;;;;;;;;;4361782;32;20000;-73
2021/11/23 05:01:28;;;;;;;;;;;;;;;;;;4361617;32;20024;-73
2021/11/23 05:03:55;;;;;;;12.65;4.37;;;;;;;;;;4361366;32;20265;-72
2021/11/23 05:06:20;;;;;;;18.45;5.00;;;;;;;;;;4361088;32;20158;-71
2021/11/23 05:08:46;;;;;;;;;;;;;;;;;;4360865;32;20032;-72
2021/11/23 05:11:11;;;;;;;13.52;4.60;;;;;;;;;;4361270;32;19944;-72
2021/11/23 05:13:36;;;;;;;;;;;;;;;;;;4361413;32;20167;-72
2021/11/23 05:16:01;;;;;;;14.80;4.48;;;;;;;;;;4360748;32;19930;-72
2021/11/23 05:18:27;;;;;;;;;;;;;;;;;;4361132;33;20055;-71
2021/11/23 05:20:52;;;;;;;12.77;3.78;;;;;;;;;;4360868;33;20280;-71
2021/11/23 05:23:17;;;;;;;;;;;;;;;;;;4361490;32;20112;-73
2021/11/23 05:25:42;;;;;;;12.85;4.37;;;;;;;;;;4360082;32;19953;-72
2021/11/23 05:28:07;;;;;;;;;;;;;;;;;;4360619;32;20327;-72
2021/11/23 05:30:32;;;;;;;10.88;4.35;;;;;;;;;;4360980;32;19934;-72
2021/11/23 05:32:57;;;;;;;;;;;;;;;;;;4360376;32;20198;-72
2021/11/23 05:35:23;;;;;;;9.63;4.40;;;;;;;;;;4352756;33;19943;-72
2021/11/23 05:37:48;;;;;;;;;;;;;;;;;;4361216;32;20031;-72
2021/11/23 05:40:14;;;;;;;15.40;5.97;;;;;;;;;;4360212;32;19982;-73
2021/11/23 05:42:39;;;;;;;;;;;;;;;;;;4360551;32;20027;-73
2021/11/23 05:45:10;;;;;;;13.57;5.25;;;;;;;;;;4371739;32;19945;-73
2021/11/23 05:47:36;;;;;;;10.13;4.47;;;;;;;;;;4360409;32;20107;-72
2021/11/23 05:50:03;;;;;;;;;;;;;;;;;;4360428;32;20535;-73
2021/11/23 05:52:28;;;;;;;5.85;4.25;;;;;;;;;;4360140;32;19989;-72
2021/11/23 05:54:53;;;;;;;;;;;;;;;;;;4360843;32;20016;-72
2021/11/23 05:57:18;;;;;;;10.75;4.55;;;;;;;;;;4359901;33;19942;-72
2021/11/23 05:59:43;;;;;;;;;;;;;;;;;;4360342;32;20020;-72
2021/11/23 06:02:09;;;;;;;15.02;6.20;;;;;;;;;;4359907;32;19958;-73
2021/11/23 06:04:44;;;;;;;;;;;;;;;;;;;;;
2021/11/23 06:07:10;;;;;;;13.32;6.00;;;;;;;;;;4358412;33;19961;-72
2021/11/23 06:09:35;;;;;;;;;;;;;;;;;;4359320;33;20023;-72
2021/11/23 06:12:00;;;;;;;15.32;5.90;;;;;;;;;;4371112;32;19969;-72
2021/11/23 06:14:25;;;;;;;;;;;;;;;;;;4359185;33;20087;-73
2021/11/23 06:16:53;;;;;;;18.42;4.90;;;;;;;;;;4360081;33;19935;-71
2021/11/23 06:19:18;;;;;;;14.02;4.70;;;;;;;;;;4360160;32;20185;-72
2021/11/23 06:21:44;;;;;;;;;;;;;;;;;;4362323;33;20377;-72
2021/11/23 06:24:10;;;;;;;21.42;7.87;;;;;;;;;;4360577;33;19965;-72
2021/11/23 06:26:35;;;;;;;11.85;5.80;;;;;;;;;;4366251;32;20482;-72
2021/11/23 06:29:00;;;;;;;;;;;;;;;;;;4360853;32;20023;-74
2021/11/23 06:31:29;;;;;;;21.00;5.60;;;;;;;;;;4359672;33;19957;-72
2021/11/23 06:33:55;;;;;;;19.48;7.12;;;;;;;;;;4357972;33;20418;-72
2021/11/23 06:36:20;;;;;;;;;;;;;;;;;;4361666;33;20023;-72
2021/11/23 06:38:46;;;;;;;16.66;5.96;;;;;;;;;;4359973;33;19934;-72
2021/11/23 06:41:12;;;;;;;20.83;6.72;;;;;;;;;;4360049;33;20390;-72
2021/11/23 06:43:38;;;;;;;;;;;;;;;;;;4360332;33;20433;-72
2021/11/23 06:46:06;;;;;;;15.30;6.45;;;;;;;;;;4359808;33;19953;-72
2021/11/23 06:48:31;;;;;;;26.30;9.70;;;;;;;;;;4360404;33;20080;-72
2021/11/23 06:50:56;;;;;;;;;;;;;;;;;;4359517;33;20138;-72
2021/11/23 06:53:22;;;;;;;14.35;7.47;;;;;;;;;;4358984;33;19960;-71
2021/11/23 06:55:47;;;;;;;;;;;;;;;;;;4359899;33;20061;-72
2021/11/23 06:58:12;;;;;;;17.20;5.50;;;;;;;;;;4359333;33;19935;-73
2021/11/23 07:00:38;;;;;;;;;;;;;;;;;;4345118;33;20024;-72
2021/11/23 07:03:06;;;;;;;20.00;6.47;;;;;;;;;;4344800;33;19976;-72
2021/11/23 07:05:31;;;;;;;17.65;6.53;;;;;;;;;;4345280;33;20054;-73
2021/11/23 07:07:57;;;;;;;;;;;;;;;;;;4345178;33;20075;-73
2021/11/23 07:10:24;;;;;;;9.63;5.22;;;;;;;;;;4358251;33;20301;-73
2021/11/23 07:12:50;;;;;;;18.35;6.05;;;;;;;;;;4361599;33;20318;-73
2021/11/23 07:15:15;;;;;;;;;;;;;;;;;;4360635;33;20063;-72
2021/11/23 07:17:40;;;;;;;13.65;5.35;;;;;;;;;;4362279;32;20312;-72
2021/11/23 07:20:05;;;;;;;;;;;;;;;;;;4362406;33;20119;-73
2021/11/23 07:22:31;;;;;;;19.90;6.95;;;;;;;;;;4361139;32;19990;-72
2021/11/23 07:24:56;;;;;;;;;;;;;;;;;;4362591;33;20081;-72
2021/11/23 07:27:21;;;;;;;15.98;5.53;;;;;;;;;;4361922;32;19954;-73
2021/11/23 07:29:46;;;;;;;;;;;;;;;;;;4362170;32;20253;-72
2021/11/23 07:32:12;;;;;;;11.18;5.43;;;;;;;;;;4347661;33;19985;-72
2021/11/23 07:34:37;;;;;;;;;;;;;;;;;;4362612;32;20074;-70
2021/11/23 07:37:05;;;;;;;24.92;7.10;;;;;;;;;;4362337;32;20001;-72
2021/11/23 07:39:30;;;;;;;20.75;6.22;;;;;;;;;;4362276;32;20223;-73
2021/11/23 07:41:55;;;;;;;;;;;;;;;;;;4362641;32;20443;-72
2021/11/23 07:44:24;;;;;;;18.56;8.04;;;;;;;;;;4357313;32;19985;-72
2021/11/23 07:46:49;;;;;;;18.35;6.43;;;;;;;;;;4359822;32;20049;-72
2021/11/23 07:49:14;;;;;;;;;;;;;;;;;;4362187;32;20100;-69
2021/11/23 07:51:40;;;;;;;15.35;5.28;;;;;;;;;;4361201;32;19971;-72
2021/11/23 07:54:05;;;;;;;;;;;;;;;;;;4361438;32;20028;-72
2021/11/23 07:56:30;;;;;;;14.55;5.35;;;;;;;;;;4361156;33;19942;-73
2021/11/23 07:58:56;;;;;;;;;;;;;;;;;;4361856;32;20046;-72
2021/11/23 08:01:21;;;;;;;14.15;5.57;;;;;;;;;;4361453;32;19942;-72
2021/11/23 08:03:46;;;;;;;;;;;;;;;;;;4361657;32;20074;-72
2021/11/23 08:06:12;;;;;;;13.05;5.82;;;;;;;;;;4361896;32;19935;-71
2021/11/23 08:08:37;;;;;;;;;;;;;;;;;;4362769;32;20072;-71
2021/11/23 08:11:03;;;;;;;20.45;6.62;;;;;;;;;;4362153;32;20009;-72
2021/11/23 08:13:28;;;;;;;;;;;;;;;;;;4361863;32;20486;-72
2021/11/23 08:15:53;;;;;;;16.65;6.10;;;;;;;;;;4361822;32;19953;-72
2021/11/23 08:18:18;;;;;;;;;;;;;;;;;;4361967;32;20015;-72
2021/11/23 08:20:43;;;;;;;21.87;8.20;;;;;;;;;;4362235;32;19977;-71
2021/11/23 08:23:08;;;;;;;;;;;;;;;;;;4362172;32;20115;-71
2021/11/23 08:25:44;;;;;;;32.55;9.77;;;;;;;;;;4361484;33;19949;-71
2021/11/23 08:28:09;;;;;;;22.52;8.60;;;;;;;;;;4348215;33;20027;-72
2021/11/23 08:30:37;;;;;;;;;;;;;;;;;;4361678;32;20391;-72
2021/11/23 08:33:03;;;;;;;26.00;8.10;;;;;;;;;;4360993;32;19981;-73
2021/11/23 08:35:28;;;;;;;;;;;;;;;;;;4361840;32;20031;-73
2021/11/23 08:38:05;;;;;;;24.42;10.38;;;;;;;;;;4361675;32;19942;-73
2021/11/23 08:40:30;;;;;;;20.90;10.55;;;;;;;;;;4361253;33;20436;-73
2021/11/23 08:43:12;;;;;;;;;;;;;;;;;;4369874;32;20023;-72
2021/11/23 08:45:41;;;;;;;27.17;6.95;;;;;;;;;;4376487;32;20032;-73
2021/11/23 08:48:06;;;;;;;11.63;5.50;;;;;;;;;;4375944;32;20049;-73
2021/11/23 08:50:31;;;;;;;;;;;;;;;;;;4376317;32;20027;-72
2021/11/23 08:53:00;;;;;;;19.05;5.20;;;;;;;;;;4375569;32;19980;-73
2021/11/23 08:55:26;;;;;;;13.55;6.20;;;;;;;;;;4376111;32;20322;-72
2021/11/23 08:57:51;;;;;;;25.12;6.20;;;;;;;;;;4362151;32;20445;-73
2021/11/23 09:00:18;;;;;;;;;;;;;;;;;;4376295;32;20055;-72
2021/11/23 09:02:48;;;;;;;16.20;5.60;;;;;;;;;;4375815;32;19953;-72
2021/11/23 09:05:23;;;;;;;16.12;5.65;;;;;;;;;;4375629;32;20041;-73
2021/11/23 09:08:02;;;;;;;;;;;;;;;;;;;;;
2021/11/23 09:10:34;;;;;;;14.05;5.32;;;;;;;;;;4376276;32;20054;-72
2021/11/23 09:13:01;;;;;;;12.00;4.72;;;;;;;;;;4375887;32;20031;-72
2021/11/23 09:15:26;;;;;;;17.58;6.37;;;;;;;;;;4376769;32;20326;-72
2021/11/23 09:17:51;;;;;;;;;;;;;;;;;;4376115;32;20019;-71
2021/11/23 09:20:18;;;;;;;12.45;4.95;;;;;;;;;;4375328;32;19934;-70
2021/11/23 09:22:44;;;;;;;19.10;5.85;;;;;;;;;;4375833;32;20046;-72
2021/11/23 09:25:09;;;;;;;;;;;;;;;;;;4376246;32;20042;-71
2021/11/23 09:27:44;;;;;;;18.95;6.25;;;;;;;;;;4375423;32;19946;-71
2021/11/23 09:30:11;;;;;;;10.63;4.40;;;;;;;;;;4375968;32;20057;-71
2021/11/23 09:32:37;;;;;;;14.98;3.75;;;;;;;;;;4375054;32;20049;-72
2021/11/23 09:35:02;;;;;;;;;;;;;;;;;;4375444;32;20043;-72
2021/11/23 09:37:27;;;;;;;13.20;3.65;;;;;;;;;;4375163;32;19930;-70
2021/11/23 09:39:53;;;;;;;;;;;;;;;;;;4375662;32;20014;-71
2021/11/23 09:42:27;;;;;;;11.26;4.42;;;;;;;;;;4373962;32;19971;-72
2021/11/23 09:44:53;;;;;;;7.95;4.18;;;;;;;;;;4375625;32;20015;-73
2021/11/23 09:47:18;;;;;;;;;;;;;;;;;;4376411;32;20393;-72
2021/11/23 09:49:55;;;;;;;9.50;3.08;;;;;;;;;;4375158;32;19985;-72
2021/11/23 09:52:24;;;;;;;9.93;3.22;;;;;;;;;;4375279;32;20314;-71
2021/11/23 09:54:51;;;;;;;15.20;3.97;;;;;;;;;;4374877;32;20027;-72
2021/11/23 09:57:19;;;;;;;14.30;4.15;;;;;;;;;;4375599;32;20119;-72
2021/11/23 09:59:44;;;;;;;9.93;3.28;;;;;;;;;;4376050;32;20024;-71
2021/11/23 10:02:10;;;;;;;;;;;;;;;;;;4375567;32;20447;-73
2021/11/23 10:04:37;;;;;;;12.80;3.45;;;;;;;;;;4375430;32;19947;-72
2021/11/23 10:07:07;;;;;;;11.95;3.50;;;;;;;;;;4374786;32;20057;-70
2021/11/23 10:09:42;;;;;;;16.15;3.70;;;;;;;;;;4376651;32;20047;-72
2021/11/23 10:12:12;;;;;;;8.95;3.15;;;;;;;;;;4373682;32;20423;-72
2021/11/23 10:14:37;;;;;;;11.15;2.87;;;;;;;;;;4375309;32;20223;-73
2021/11/23 10:17:02;;;;;;;;;;;;;;;;;;4375573;32;20030;-73
2021/11/23 10:19:55;;;;;;;10.57;2.97;;;;;;;;;;4362250;32;19978;-72
2021/11/23 10:22:50;;;;;;;8.55;3.05;;;;;;;;;;4360316;33;20402;-72
2021/11/23 10:25:18;;;;;;;12.25;3.03;;;;;;;;;;4358839;33;20093;-72
2021/11/23 10:27:44;;;;;;;7.22;2.75;;;;;;;;;;4360399;33;20070;-72
2021/11/23 10:30:09;;;;;;;;;;;;;;;;;;4360393;33;20027;-73
2021/11/23 10:32:40;;;;;;;8.57;3.20;;;;;;;;;;4359837;33;19945;-72
2021/11/23 10:35:10;;;;;;;10.35;2.40;;;;;;;;;;4361035;33;20394;-71
2021/11/23 10:37:35;;;;;;;8.45;2.50;;;;;;;;;;4359556;33;20027;-72
2021/11/23 10:40:00;;;;;;;;;;;;;;;;;;4360629;33;20432;-73
2021/11/23 10:42:32;;;;;;;8.82;2.10;;;;;;;;;;4359731;32;19990;-72
2021/11/23 10:44:58;;;;;;;13.20;2.70;;;;;;;;;;4362279;33;20058;-73
2021/11/23 10:47:23;;;;;;;;;;;;;;;;;;4363426;32;20050;-73
2021/11/23 10:49:51;;;;;;;11.85;3.78;;;;;;;;;;4362657;33;19942;-71
2021/11/23 10:52:23;;;;;;;7.30;2.42;;;;;;;;;;4363160;32;20150;-72
2021/11/23 10:54:48;;;;;;;23.98;4.12;;;;;;;;;;4362669;32;20027;-71
2021/11/23 10:57:13;;;;;;;;;;;;;;;;;;4362700;32;20055;-72
2021/11/23 10:59:39;;;;;;;9.88;2.37;;;;;;;;;;4362993;32;19945;-73
2021/11/23 11:02:04;;;;;;;;;;;;;;;;;;4349777;33;20077;-72
2021/11/23 11:04:32;;;;;;;9.65;2.55;;;;;;;;;;4363020;32;20249;-72
2021/11/23 11:06:58;;;;;;;7.03;2.33;;;;;;;;;;4362952;32;20201;-72
2021/11/23 11:09:32;;;;;;;;;;;;;;;;;;4364594;32;20098;-72
2021/11/23 11:11:58;;;;;;;7.50;2.25;;;;;;;;;;4364049;32;19966;-72
2021/11/23 11:14:23;;;;;;;;;;;;;;;;;;4362779;32;20023;-72
2021/11/23 11:16:52;;;;;;;6.85;2.33;;;;;;;;;;4362740;32;19946;-72
2021/11/23 11:19:17;;;;;;;5.65;2.80;;;;;;;;;;4362670;32;20085;-72
2021/11/23 11:21:42;;;;;;;;;;;;;;;;;;4349596;33;20031;-72
2021/11/23 11:24:35;;;;;;;13.45;3.10;;;;;;;;;;4363447;32;19993;-72
2021/11/23 11:27:12;;;;;;;8.65;3.42;;;;;;;;;;4362144;33;20031;-73
2021/11/23 11:29:55;;;;;;;;;;;;;;;;;;4362385;32;20074;-73
2021/11/23 11:32:31;;;;;;;8.98;2.00;;;;;;;;;;4362511;32;19993;-72
2021/11/23 11:35:16;;;;;;;10.10;2.08;;;;;;;;;;4362029;32;20027;-70
2021/11/23 11:37:42;;;;;;;16.92;2.65;;;;;;;;;;4362316;33;20443;-73
2021/11/23 11:40:07;;;;;;;;;;;;;;;;;;4362442;32;20055;-71
2021/11/23 11:42:36;;;;;;;15.52;2.72;;;;;;;;;;4362102;32;19942;-72
2021/11/23 11:45:12;;;;;;;8.05;3.12;;;;;;;;;;4348208;33;20094;-72
2021/11/23 11:47:51;;;;;;;8.38;2.65;;;;;;;;;;4337182;33;20069;-73
2021/11/23 11:50:24;;;;;;;9.20;2.08;;;;;;;;;;4348501;33;20050;-72
2021/11/23 11:53:36;;;;;;;9.15;2.30;;;;;;;;;;4348999;33;20398;-72
2021/11/23 11:56:04;;;;;;;7.65;2.87;;;;;;;;;;4346792;33;20069;-72
2021/11/23 11:58:52;;;;;;;12.10;2.78;;;;;;;;;;4361528;32;20402;-72
2021/11/23 12:01:27;;;;;;;6.47;2.05;;;;;;;;;;4362202;32;20019;-72
2021/11/23 12:04:01;;;;;;;7.55;2.15;;;;;;;;;;4362693;32;20034;-73
2021/11/23 12:06:45;;;;;;;10.18;2.75;;;;;;;;;;4361872;32;20024;-72
2021/11/23 12:09:27;;;;;;;7.10;2.08;;;;;;;;;;4361550;32;20023;-72
2021/11/23 12:11:54;;;;;;;11.90;2.20;;;;;;;;;;4361530;32;20024;-73
2021/11/23 12:14:23;;;;;;;15.73;2.97;;;;;;;;;;4348923;33;20024;-72
2021/11/23 12:16:59;;;;;;;8.90;2.70;;;;;;;;;;4348256;33;20058;-72
2021/11/23 12:20:01;;;;;;;8.70;3.08;;;;;;;;;;4347704;33;20420;-73
2021/11/23 12:22:26;;;;;;;9.80;2.97;;;;;;;;;;4362288;32;20019;-73
2021/11/23 12:24:54;;;;;;;;;;;;;;;;;;4362025;33;20381;-72
2021/11/23 12:30:15;;;;;;;12.60;3.45;;;;;;;;;;4362407;32;20027;-73
2021/11/23 12:32:40;;;;;;;8.43;2.20;;;;;;;;;;4348193;33;20016;-73
2021/11/23 12:35:09;;;;;;;;;;;;;;;;;;4362369;32;20081;-71
2021/11/23 12:37:53;;;;;;;10.07;2.58;;;;;;;;;;4361198;32;20272;-72
2021/11/23 12:40:22;;;;;;;11.00;2.72;;;;;;;;;;4361319;32;20433;-73
2021/11/23 12:42:52;;;;;;;14.55;2.55;;;;;;;;;;4347525;33;20051;-72
2021/11/23 12:45:37;;;;;;;5.57;2.55;;;;;;;;;;4361206;33;20051;-73
2021/11/23 12:48:03;;;;;;;9.23;2.95;;;;;;;;;;4348585;33;20035;-72
2021/11/23 12:50:42;;;;;;;14.15;3.15;;;;;;;;;;4362322;32;20070;-72
2021/11/23 12:53:12;;;;;;;9.95;3.25;;;;;;;;;;4361005;32;20405;-72
2021/11/23 12:55:37;;;;;;;17.05;3.55;;;;;;;;;;4360727;32;20061;-72
2021/11/23 12:58:10;;;;;;;;;;;;;;;;;;4348139;33;20366;-72
2021/11/23 13:00:37;;;;;;;17.15;2.85;;;;;;;;;;4361628;32;19934;-72
2021/11/23 13:03:02;;;;;;;22.27;4.53;;;;;;;;;;4362346;32;20374;-72
2021/11/23 13:05:28;;;;;;;;;;;;;;;;;;4361298;32;20054;-73
2021/11/23 13:08:00;;;;;;;12.13;3.45;;;;;;;;;;4360339;33;19938;-72
2021/11/23 13:10:26;;;;;;;16.75;4.53;;;;;;;;;;4360791;32;20022;-73
2021/11/23 13:12:55;;;;;;;12.45;3.20;;;;;;;;;;4361099;32;20076;-72
2021/11/23 13:15:26;;;;;;;13.32;3.25;;;;;;;;;;4360903;33;20359;-72
2021/11/23 13:18:03;;;;;;;16.30;2.40;;;;;;;;;;4361534;32;20446;-72
2021/11/23 13:20:38;;;;;;;9.18;2.08;;;;;;;;;;4361299;32;20026;-72
2021/11/23 13:23:26;;;;;;;10.10;2.10;;;;;;;;;;4361243;32;20424;-73
2021/11/23 13:26:18;;;;;;;10.65;2.20;;;;;;;;;;4360293;32;20027;-72
2021/11/23 13:28:44;;;;;;;9.68;1.80;;;;;;;;;;4360821;32;20057;-73
2021/11/23 13:31:20;;;;;;;9.75;2.22;;;;;;;;;;4360632;32;20048;-74
2021/11/23 13:33:47;;;;;;;10.17;2.37;;;;;;;;;;4360949;32;20072;-72
2021/11/23 13:36:32;;;;;;;20.27;2.67;;;;;;;;;;4360892;32;20124;-73
2021/11/23 13:39:25;;;;;;;10.35;2.40;;;;;;;;;;4360186;32;20051;-72
2021/11/23 13:41:57;;;;;;;12.23;2.90;;;;;;;;;;4354181;33;20016;-73
2021/11/23 13:47:53;;;;;;;9.13;2.08;;;;;;;;;;4337278;33;20023;-72
2021/11/23 13:50:21;;;;;;;12.73;2.03;;;;;;;;;;4314615;33;20063;-73
2021/11/23 13:52:53;;;;;;;11.90;1.98;;;;;;;;;;4314780;33;20032;-72
2021/11/23 13:55:26;;;;;;;15.02;2.05;;;;;;;;;;4338807;33;20078;-71
2021/11/23 13:57:51;;;;;;;13.00;2.50;;;;;;;;;;4361057;32;20028;-72
2021/11/23 14:00:16;;;;;;;;;;;;;;;;;;4360905;32;20031;-72
2021/11/23 14:02:44;;;;;;;13.82;3.37;;;;;;;;;;4361078;32;19962;-72
2021/11/23 14:05:10;;;;;;;14.00;2.72;;;;;;;;;;4360929;32;20023;-72
2021/11/23 14:07:35;;;;;;;;;;;;;;;;;;4361189;32;20045;-72
2021/11/23 14:10:04;;;;;;;24.40;2.80;;;;;;;;;;4360237;32;19934;-71
2021/11/23 14:12:34;;;;;;;35.35;3.83;;;;;;;;;;4360329;32;20544;-70
2021/11/23 14:15:04;;;;;;;7.90;1.85;;;;;;;;;;4360068;33;20057;-72
2021/11/23 14:17:48;;;;;;;16.67;2.75;;;;;;;;;;4361946;32;20420;-74
2021/11/23 14:20:14;;;;;;;16.70;2.58;;;;;;;;;;4364934;32;20023;-72
2021/11/23 14:22:57;;;;;;;;;;;;;;;;;;4365345;32;20065;-73
2021/11/23 14:25:32;;;;;;;19.45;3.65;;;;;;;;;;4365561;32;19961;-73
2021/11/23 14:28:01;;;;;;;12.82;2.90;;;;;;;;;;4350926;33;20062;-72
2021/11/23 14:30:26;;;;;;;11.55;2.80;;;;;;;;;;4365534;32;20401;-73
2021/11/23 14:32:52;;;;;;;;;;;;;;;;;;4365520;32;20020;-72
2021/11/23 14:35:17;;;;;;;11.80;2.95;;;;;;;;;;4365213;32;20370;-72
2021/11/23 14:37:45;;;;;;;;;;;;;;;;;;4366191;32;20035;-72
2021/11/23 14:40:11;;;;;;;11.25;2.53;;;;;;;;;;4365407;32;19942;-72
2021/11/23 14:42:39;;;;;;;;;;;;;;;;;;4366177;32;20082;-72
2021/11/23 14:45:19;;;;;;;15.13;3.22;;;;;;;;;;4351034;33;19935;-72
2021/11/23 14:47:44;;;;;;;16.55;2.80;;;;;;;;;;4365229;32;20031;-72
2021/11/23 14:50:13;;;;;;;;;;;;;;;;;;4365252;32;20070;-72
2021/11/23 14:52:43;;;;;;;28.70;4.03;;;;;;;;;;4364752;32;19978;-71
2021/11/23 14:55:12;;;;;;;11.27;2.62;;;;;;;;;;4365608;32;20039;-71
2021/11/23 14:57:40;;;;;;;18.17;3.92;;;;;;;;;;4365131;32;20059;-71
2021/11/23 15:00:08;;;;;;;6.40;2.30;;;;;;;;;;4365056;32;20089;-71
2021/11/23 15:02:43;;;;;;;13.60;2.80;;;;;;;;;;4364996;32;20098;-71
2021/11/23 15:05:08;;;;;;;15.75;2.92;;;;;;;;;;4364919;32;20051;-70
2021/11/23 15:07:33;;;;;;;;;;;;;;;;;;4365521;32;20042;-72
2021/11/23 15:09:59;;;;;;;12.82;2.65;;;;;;;;;;4351251;33;20321;-71
2021/11/23 15:12:25;;;;;;;;;;;;;;;;;;4365104;32;20073;-72
2021/11/23 15:14:50;;;;;;;10.63;2.83;;;;;;;;;;4365112;32;19942;-72
2021/11/23 15:17:15;;;;;;;13.73;2.65;;;;;;;;;;4364977;32;20036;-73
2021/11/23 15:19:40;;;;;;;;;;;;;;;;;;4365918;32;20061;-73
2021/11/23 15:22:06;;;;;;;12.18;2.53;;;;;;;;;;4365288;32;19940;-73
2021/11/23 15:24:31;;;;;;;;;;;;;;;;;;4365508;32;20103;-73